createdAt,value
2022-09-15T00:01:33.323Z,1.97
2022-09-15T00:04:01.924Z,2.33
2022-09-15T00:06:30.495Z,2.20
2022-09-15T00:08:59.321Z,1.97
2022-09-15T00:11:29.763Z,2.10
2022-09-15T00:14:01.511Z,2.10
2022-09-15T00:16:31.709Z,2.37
2022-09-15T00:19:02.025Z,2.40
2022-09-15T00:21:33.460Z,2.30
2022-09-15T00:24:02.955Z,2.20
2022-09-15T00:26:32.622Z,1.97
2022-09-15T00:29:01.876Z,2.20
2022-09-15T00:31:31.865Z,2.47
2022-09-15T00:34:04.013Z,2.53
2022-09-15T00:36:32.844Z,2.57
2022-09-15T00:39:01.263Z,2.90
2022-09-15T00:41:30.494Z,2.60
2022-09-15T00:44:00.614Z,2.57
2022-09-15T00:46:31.416Z,2.60
2022-09-15T00:49:07.003Z,2.80
2022-09-15T00:51:41.162Z,2.43
2022-09-15T00:54:13.403Z,2.23
2022-09-15T00:56:43.777Z,2.20
2022-09-15T00:59:15.801Z,2.27
2022-09-15T01:01:47.060Z,2.63
2022-09-15T01:04:17.552Z,2.43
2022-09-15T01:06:51.237Z,2.10
2022-09-15T01:09:24.342Z,2.40
2022-09-15T01:11:52.752Z,2.70
2022-09-15T01:14:21.284Z,2.20
2022-09-15T01:16:59.982Z,2.90
2022-09-15T01:20:07.124Z,2.40
2022-09-15T01:22:49.337Z,2.50
2022-09-15T01:25:32.212Z,2.73
2022-09-15T01:28:29.544Z,2.37
2022-09-15T01:31:02.175Z,2.37
2022-09-15T01:33:37.346Z,2.33
2022-09-15T01:36:15.288Z,2.57
2022-09-15T01:38:51.285Z,2.30
2022-09-15T01:41:26.624Z,2.57
2022-09-15T01:43:59.616Z,2.57
2022-09-15T01:46:33.418Z,2.47
2022-09-15T01:49:04.728Z,2.73
2022-09-15T01:51:35.253Z,2.13
2022-09-15T01:54:06.662Z,2.50
2022-09-15T01:56:37.233Z,2.70
2022-09-15T01:59:06.232Z,2.27
2022-09-15T02:01:43.737Z,2.70
2022-09-15T02:04:17.975Z,2.23
2022-09-15T02:06:54.076Z,1.93
2022-09-15T02:09:27.257Z,2.03
2022-09-15T02:12:02.472Z,2.23
2022-09-15T02:14:48.076Z,2.13
2022-09-15T02:17:21.487Z,2.00
2022-09-15T02:19:52.236Z,1.90
2022-09-15T02:22:27.011Z,2.10
2022-09-15T02:25:03.097Z,2.77
2022-09-15T02:27:37.450Z,1.93
2022-09-15T02:30:11.682Z,2.00
2022-09-15T02:32:48.373Z,1.63
2022-09-15T02:35:18.004Z,2.07
2022-09-15T02:37:47.483Z,1.70
2022-09-15T02:40:16.279Z,1.90
2022-09-15T02:42:54.252Z,1.97
2022-09-15T02:45:23.051Z,1.93
2022-09-15T02:47:52.891Z,1.73
2022-09-15T02:50:21.546Z,1.77
2022-09-15T02:52:49.935Z,2.20
2022-09-15T02:55:18.427Z,1.70
2022-09-15T02:57:46.851Z,2.10
2022-09-15T03:00:17.498Z,1.83
2022-09-15T03:02:48.224Z,1.70
2022-09-15T03:05:19.979Z,1.70
2022-09-15T03:07:48.463Z,1.70
2022-09-15T03:10:17.191Z,1.77
2022-09-15T03:12:47.407Z,3.07
2022-09-15T03:15:18.589Z,6.30
2022-09-15T03:17:48.413Z,3.10
2022-09-15T03:20:20.376Z,3.17
2022-09-15T03:22:49.732Z,4.50
2022-09-15T03:25:18.781Z,6.87
2022-09-15T03:27:47.343Z,4.90
2022-09-15T03:30:16.136Z,2.80
2022-09-15T03:32:44.612Z,2.43
2022-09-15T03:35:12.997Z,1.80
2022-09-15T03:37:42.757Z,1.70
2022-09-15T03:40:11.949Z,1.80
2022-09-15T03:42:41.283Z,1.60
2022-09-15T03:45:10.184Z,1.57
2022-09-15T03:47:38.807Z,1.83
2022-09-15T03:50:07.791Z,1.40
2022-09-15T03:52:36.288Z,1.47
2022-09-15T03:55:06.882Z,1.47
2022-09-15T03:57:35.203Z,1.50
2022-09-15T04:00:06.115Z,1.30
2022-09-15T04:02:34.617Z,1.23
2022-09-15T04:05:03.042Z,1.80
2022-09-15T04:07:31.490Z,1.30
2022-09-15T04:10:01.079Z,1.77
2022-09-15T04:12:32.414Z,1.50
2022-09-15T04:15:00.947Z,1.07
2022-09-15T04:17:29.444Z,1.20
2022-09-15T04:19:57.877Z,1.30
2022-09-15T04:22:26.303Z,1.27
2022-09-15T04:24:54.744Z,1.30
2022-09-15T04:27:23.131Z,1.17
2022-09-15T04:29:53.354Z,1.23
2022-09-15T04:32:22.195Z,1.20
2022-09-15T04:34:50.613Z,1.33
2022-09-15T04:37:18.987Z,1.50
2022-09-15T04:39:47.822Z,1.20
2022-09-15T04:42:16.486Z,1.13
2022-09-15T04:44:44.830Z,1.17
2022-09-15T04:47:14.600Z,0.93
2022-09-15T04:49:43.197Z,1.10
2022-09-15T04:52:11.543Z,1.30
2022-09-15T04:54:39.994Z,1.57
2022-09-15T04:57:09.464Z,1.07
2022-09-15T04:59:37.830Z,1.23
2022-09-15T05:02:06.333Z,1.30
2022-09-15T05:04:36.319Z,0.90
2022-09-15T05:07:04.759Z,1.10
2022-09-15T05:09:33.184Z,0.90
2022-09-15T05:12:01.769Z,1.17
2022-09-15T05:14:31.427Z,1.03
2022-09-15T05:16:59.792Z,1.30
2022-09-15T05:19:28.146Z,1.30
2022-09-15T05:21:57.836Z,1.13
2022-09-15T05:24:26.388Z,1.17
2022-09-15T05:26:54.834Z,1.07
2022-09-15T05:29:23.335Z,1.00
2022-09-15T05:31:51.782Z,1.10
2022-09-15T05:34:20.309Z,1.53
2022-09-15T05:36:48.712Z,1.30
2022-09-15T05:39:18.599Z,1.03
2022-09-15T05:41:47.311Z,0.90
2022-09-15T05:44:15.865Z,1.03
2022-09-15T05:46:44.330Z,1.00
2022-09-15T05:49:12.745Z,1.30
2022-09-15T05:51:41.781Z,0.93
2022-09-15T05:54:10.198Z,1.00
2022-09-15T05:56:39.984Z,0.83
2022-09-15T05:59:08.835Z,1.10
2022-09-15T06:01:37.268Z,0.80
2022-09-15T06:04:06.340Z,1.20
2022-09-15T06:06:34.708Z,1.13
2022-09-15T06:09:06.703Z,1.10
2022-09-15T06:11:35.101Z,1.03
2022-09-15T06:14:05.973Z,1.00
2022-09-15T06:16:35.872Z,1.23
2022-09-15T06:19:04.554Z,1.03
2022-09-15T06:21:34.090Z,0.97
2022-09-15T06:24:07.014Z,1.20
2022-09-15T06:26:35.773Z,1.03
2022-09-15T06:29:06.462Z,0.80
2022-09-15T06:31:35.945Z,0.90
2022-09-15T06:34:05.378Z,0.83
2022-09-15T06:36:34.623Z,0.60
2022-09-15T06:39:03.110Z,0.80
2022-09-15T06:41:52.404Z,0.50
2022-09-15T06:44:21.694Z,1.10
2022-09-15T06:46:50.518Z,0.60
2022-09-15T06:49:19.130Z,1.13
2022-09-15T06:51:47.555Z,0.97
2022-09-15T06:54:16.704Z,0.60
2022-09-15T06:56:45.664Z,0.70
2022-09-15T06:59:14.844Z,0.83
2022-09-15T07:01:44.866Z,1.30
2022-09-15T07:04:13.285Z,1.03
2022-09-15T07:06:41.696Z,1.10
2022-09-15T07:09:11.673Z,0.90
2022-09-15T07:11:40.080Z,1.33
2022-09-15T07:14:08.538Z,1.00
2022-09-15T07:16:37.016Z,1.03
2022-09-15T07:19:06.865Z,0.87
2022-09-15T07:21:35.696Z,1.00
2022-09-15T07:24:07.282Z,0.80
2022-09-15T07:26:36.256Z,1.23
2022-09-15T07:29:07.352Z,1.40
2022-09-15T07:31:38.926Z,1.23
2022-09-15T07:34:08.981Z,0.97
2022-09-15T07:36:37.708Z,1.50
2022-09-15T07:39:06.615Z,1.20
2022-09-15T07:41:35.209Z,1.00
2022-09-15T07:44:03.926Z,1.07
2022-09-15T07:46:33.573Z,1.07
2022-09-15T07:49:03.141Z,0.80
2022-09-15T07:51:33.090Z,0.93
2022-09-15T07:54:01.648Z,0.80
2022-09-15T07:56:30.192Z,0.73
2022-09-15T07:58:59.224Z,0.93
2022-09-15T08:01:27.748Z,1.00
2022-09-15T08:03:56.262Z,1.20
2022-09-15T08:06:26.701Z,1.17
2022-09-15T08:09:00.357Z,0.80
2022-09-15T08:11:29.840Z,0.90
2022-09-15T08:14:01.401Z,0.80
2022-09-15T08:16:30.019Z,0.90
2022-09-15T08:18:58.573Z,1.17
2022-09-15T08:21:27.768Z,0.50
2022-09-15T08:23:59.158Z,1.10
2022-09-15T08:26:28.890Z,0.70
2022-09-15T08:28:57.848Z,0.60
2022-09-15T08:31:26.613Z,0.80
2022-09-15T08:33:56.343Z,0.60
2022-09-15T08:36:27.534Z,0.50
2022-09-15T08:38:57.540Z,0.80
2022-09-15T08:41:30.375Z,1.43
2022-09-15T08:44:05.663Z,0.60
2022-09-15T08:46:40.187Z,0.87
2022-09-15T08:49:30.559Z,0.80
2022-09-15T08:52:08.596Z,0.77
2022-09-15T08:54:39.733Z,0.90
2022-09-15T08:57:15.128Z,0.77
2022-09-15T08:59:43.516Z,1.00
2022-09-15T09:02:39.564Z,0.40
2022-09-15T09:05:19.293Z,0.53
2022-09-15T09:08:04.303Z,0.80
2022-09-15T09:10:41.577Z,0.87
2022-09-15T09:13:21.213Z,0.70
2022-09-15T09:16:03.850Z,0.83
2022-09-15T09:19:11.596Z,0.60
2022-09-15T09:21:43.039Z,0.90
2022-09-15T09:24:17.054Z,0.60
2022-09-15T09:26:54.236Z,0.97
2022-09-15T09:29:30.403Z,1.20
2022-09-15T09:31:59.887Z,0.93
2022-09-15T09:34:35.328Z,0.50
2022-09-15T09:37:11.219Z,1.37
2022-09-15T09:39:39.775Z,0.70
2022-09-15T09:42:15.621Z,1.10
2022-09-15T09:44:44.340Z,0.90
2022-09-15T09:47:13.223Z,0.90
2022-09-15T09:49:46.467Z,1.10
2022-09-15T09:52:20.072Z,0.90
2022-09-15T09:55:01.464Z,1.00
2022-09-15T09:57:32.796Z,0.77
2022-09-15T10:00:01.305Z,1.07
2022-09-15T10:02:31.212Z,0.60
2022-09-15T10:05:19.506Z,0.80
2022-09-15T10:07:48.742Z,0.80
2022-09-15T10:10:22.973Z,0.70
2022-09-15T10:12:57.118Z,0.90
2022-09-15T10:15:27.879Z,1.03
2022-09-15T10:17:57.510Z,0.70
2022-09-15T10:20:32.342Z,1.17
2022-09-15T10:23:06.854Z,0.50
2022-09-15T10:25:58.106Z,1.53
2022-09-15T10:28:28.532Z,0.70
2022-09-15T10:31:06.616Z,0.90
2022-09-15T10:33:36.656Z,0.90
2022-09-15T10:36:08.234Z,0.70
2022-09-15T10:38:42.821Z,1.53
2022-09-15T10:41:21.734Z,0.70
2022-09-15T10:44:05.412Z,0.70
2022-09-15T10:46:43.994Z,1.10
2022-09-15T10:49:27.853Z,0.97
2022-09-15T10:52:03.743Z,0.73
2022-09-15T10:54:49.900Z,0.50
2022-09-15T10:57:37.825Z,0.60
2022-09-15T11:00:11.998Z,1.33
2022-09-15T11:03:06.322Z,1.17
2022-09-15T11:05:46.979Z,1.23
2022-09-15T11:08:31.832Z,0.73
2022-09-15T11:11:08.265Z,0.80
2022-09-15T11:13:50.203Z,1.13
2022-09-15T11:16:30.850Z,0.87
2022-09-15T11:19:25.095Z,0.97
2022-09-15T11:21:56.736Z,0.70
2022-09-15T11:24:32.543Z,0.93
2022-09-15T11:27:05.991Z,0.80
2022-09-15T11:29:42.288Z,0.90
2022-09-15T11:32:18.540Z,0.60
2022-09-15T11:34:54.456Z,1.00
2022-09-15T11:37:26.344Z,0.70
2022-09-15T11:39:59.537Z,1.03
2022-09-15T11:42:34.603Z,0.57
2022-09-15T11:45:04.242Z,0.90
2022-09-15T11:47:39.687Z,0.83
2022-09-15T11:50:19.432Z,1.03
2022-09-15T11:52:53.065Z,0.77
2022-09-15T11:55:31.235Z,0.40
2022-09-15T11:58:16.373Z,1.20
2022-09-15T12:00:55.151Z,0.77
2022-09-15T12:03:31.786Z,0.70
2022-09-15T12:06:04.377Z,0.43
2022-09-15T12:08:37.436Z,0.90
2022-09-15T12:11:11.141Z,0.60
2022-09-15T12:13:41.136Z,0.80
2022-09-15T12:16:11.208Z,0.60
2022-09-15T12:18:47.143Z,0.60
2022-09-15T12:21:20.704Z,0.60
2022-09-15T12:23:55.370Z,0.77
2022-09-15T12:26:26.290Z,0.80
2022-09-15T12:28:57.711Z,0.70
2022-09-15T12:31:34.434Z,0.80
2022-09-15T12:34:06.781Z,0.47
2022-09-15T12:36:46.049Z,0.57
2022-09-15T12:39:37.553Z,0.47
2022-09-15T12:42:16.445Z,0.53
2022-09-15T12:44:48.851Z,0.70
2022-09-15T12:47:25.496Z,0.83
2022-09-15T12:49:58.292Z,1.23
2022-09-15T12:52:27.219Z,0.67
2022-09-15T12:55:03.184Z,0.70
2022-09-15T12:57:34.965Z,0.73
2022-09-15T13:00:27.514Z,1.00
2022-09-15T13:02:56.624Z,0.23
2022-09-15T13:06:18.198Z,0.47
2022-09-15T13:08:56.180Z,0.33
2022-09-15T13:11:39.025Z,0.57
2022-09-15T13:14:20.479Z,0.43
2022-09-15T13:16:57.008Z,0.40
2022-09-15T13:19:31.911Z,0.70
2022-09-15T13:22:07.400Z,0.50
2022-09-15T13:24:47.239Z,0.70
2022-09-15T13:27:20.673Z,0.53
2022-09-15T13:29:51.708Z,0.60
2022-09-15T13:32:33.199Z,0.70
2022-09-15T13:35:43.633Z,0.40
2022-09-15T13:38:52.909Z,0.70
2022-09-15T13:41:55.036Z,0.90
2022-09-15T13:44:58.001Z,0.90
2022-09-15T13:47:49.574Z,1.23
2022-09-15T13:50:24.241Z,0.60
2022-09-15T13:53:21.575Z,0.80
2022-09-15T13:55:50.145Z,0.83
2022-09-15T14:01:12.970Z,0.83
2022-09-15T14:03:45.570Z,0.67
2022-09-15T14:06:17.725Z,0.90
2022-09-15T14:08:50.571Z,0.97
2022-09-15T14:11:26.305Z,0.87
2022-09-15T14:13:57.660Z,1.37
2022-09-15T14:16:34.685Z,0.80
2022-09-15T14:19:05.850Z,1.00
2022-09-15T14:21:36.208Z,0.87
2022-09-15T14:24:07.019Z,0.63
2022-09-15T14:26:36.831Z,0.73
2022-09-15T14:29:07.865Z,1.00
2022-09-15T14:31:38.393Z,0.80
2022-09-15T14:34:15.826Z,1.00
2022-09-15T14:36:44.553Z,1.27
2022-09-15T14:39:22.704Z,0.67
2022-09-15T14:41:52.060Z,0.80
2022-09-15T14:47:20.327Z,0.43
2022-09-15T14:49:49.237Z,0.60
2022-09-15T14:52:29.738Z,0.50
2022-09-15T14:55:02.400Z,0.47
2022-09-15T14:57:36.178Z,0.47
2022-09-15T15:00:11.150Z,0.67
2022-09-15T15:02:50.125Z,0.97
2022-09-15T15:05:24.738Z,0.80
2022-09-15T15:07:55.273Z,0.70
2022-09-15T15:10:26.877Z,0.57
2022-09-15T15:13:00.225Z,0.63
2022-09-15T15:15:32.191Z,0.60
2022-09-15T15:18:00.763Z,0.50
2022-09-15T15:20:31.186Z,0.90
2022-09-15T15:23:16.463Z,0.77
2022-09-15T15:25:46.902Z,0.80
2022-09-15T15:28:32.680Z,0.90
2022-09-15T15:31:14.996Z,0.90
2022-09-15T15:33:48.449Z,1.40
2022-09-15T15:36:21.196Z,0.87
2022-09-15T15:38:53.123Z,0.80
2022-09-15T15:41:24.032Z,1.00
2022-09-15T15:44:00.769Z,1.40
2022-09-15T15:46:50.985Z,0.90
2022-09-15T15:49:20.890Z,0.80
2022-09-15T15:51:50.150Z,0.63
2022-09-15T15:54:18.680Z,0.60
2022-09-15T15:56:47.484Z,0.70
2022-09-15T15:59:16.969Z,0.70
2022-09-15T16:01:46.064Z,0.60
2022-09-15T16:04:15.931Z,0.93
2022-09-15T16:06:46.142Z,0.80
2022-09-15T16:09:17.202Z,0.50
2022-09-15T16:11:45.700Z,0.60
2022-09-15T16:14:14.614Z,0.80
2022-09-15T16:16:43.138Z,1.00
2022-09-15T16:19:12.303Z,1.10
2022-09-15T16:21:43.372Z,0.70
2022-09-15T16:24:15.041Z,0.83
2022-09-15T16:26:44.362Z,1.53
2022-09-15T16:29:13.091Z,0.63
2022-09-15T16:31:42.875Z,0.80
2022-09-15T16:34:17.533Z,0.63
2022-09-15T16:36:47.518Z,0.57
2022-09-15T16:39:15.904Z,0.50
2022-09-15T16:41:44.327Z,0.80
2022-09-15T16:44:19.110Z,0.50
2022-09-15T16:46:47.557Z,0.60
2022-09-15T16:49:15.982Z,0.43
2022-09-15T16:51:44.399Z,0.60
2022-09-15T16:54:17.695Z,0.40
2022-09-15T16:56:46.433Z,0.40
2022-09-15T16:59:15.222Z,0.60
2022-09-15T17:01:43.679Z,0.83
2022-09-15T17:04:15.844Z,0.87
2022-09-15T17:06:44.287Z,0.43
2022-09-15T17:09:12.622Z,0.70
2022-09-15T17:11:42.403Z,0.80
2022-09-15T17:14:15.161Z,0.60
2022-09-15T17:16:46.689Z,0.70
2022-09-15T17:19:15.061Z,0.40
2022-09-15T17:21:43.504Z,0.57
2022-09-15T17:24:12.043Z,0.60
2022-09-15T17:26:41.744Z,0.90
2022-09-15T17:29:10.145Z,0.73
2022-09-15T17:31:39.087Z,0.73
2022-09-15T17:34:11.117Z,0.63
2022-09-15T17:36:39.500Z,0.67
2022-09-15T17:39:08.031Z,0.50
2022-09-15T17:41:38.490Z,0.77
2022-09-15T17:44:10.122Z,0.70
2022-09-15T17:46:38.830Z,0.37
2022-09-15T17:49:07.420Z,0.57
2022-09-15T17:51:36.376Z,0.30
2022-09-15T17:54:06.992Z,0.53
2022-09-15T17:56:35.436Z,0.80
2022-09-15T17:59:03.855Z,0.50
2022-09-15T18:01:34.038Z,0.80
2022-09-15T18:04:03.020Z,0.40
2022-09-15T18:06:31.420Z,0.93
2022-09-15T18:08:59.832Z,0.70
2022-09-15T18:11:28.844Z,1.23
2022-09-15T18:13:58.414Z,0.70
2022-09-15T18:16:26.832Z,0.83
2022-09-15T18:18:56.584Z,1.00
2022-09-15T18:21:28.541Z,1.20
2022-09-15T18:23:57.026Z,0.97
2022-09-15T18:26:26.518Z,1.80
2022-09-15T18:28:56.892Z,1.13
2022-09-15T18:31:25.364Z,1.00
2022-09-15T18:33:53.888Z,0.67
2022-09-15T18:36:23.735Z,1.07
2022-09-15T18:38:52.292Z,0.60
2022-09-15T18:41:20.865Z,0.70
2022-09-15T18:43:49.916Z,1.08
2022-09-15T18:46:18.547Z,0.60
2022-09-15T18:48:48.174Z,0.80
2022-09-15T18:51:24.192Z,0.43
2022-09-15T18:53:59.740Z,0.73
2022-09-15T18:56:28.500Z,0.63
2022-09-15T18:58:56.897Z,0.67
2022-09-15T19:01:25.517Z,0.50
2022-09-15T19:03:54.204Z,0.33
2022-09-15T19:06:22.761Z,0.80
2022-09-15T19:08:51.158Z,0.60
2022-09-15T19:11:20.935Z,0.60
2022-09-15T19:13:49.398Z,0.80
2022-09-15T19:16:20.144Z,1.13
2022-09-15T19:18:51.936Z,0.73
2022-09-15T19:21:23.899Z,0.87
2022-09-15T19:23:57.972Z,0.80
2022-09-15T19:26:29.346Z,0.53
2022-09-15T19:28:58.508Z,1.10
2022-09-15T19:31:28.662Z,0.50
2022-09-15T19:33:57.121Z,0.53
2022-09-15T19:36:29.327Z,1.10
2022-09-15T19:38:58.197Z,1.00
2022-09-15T19:41:28.221Z,0.80
2022-09-15T19:43:56.634Z,0.83
2022-09-15T19:46:26.612Z,0.83
2022-09-15T19:48:55.594Z,0.63
2022-09-15T19:51:24.533Z,0.83
2022-09-15T19:53:55.616Z,0.90
2022-09-15T19:56:26.670Z,0.90
2022-09-15T19:58:58.281Z,0.50
2022-09-15T20:01:28.208Z,0.70
2022-09-15T20:03:58.008Z,1.17
2022-09-15T20:06:31.656Z,1.10
2022-09-15T20:09:01.197Z,1.00
2022-09-15T20:11:30.887Z,0.90
2022-09-15T20:14:01.092Z,0.90
2022-09-15T20:16:29.935Z,0.90
2022-09-15T20:18:58.752Z,0.80
2022-09-15T20:21:48.705Z,1.30
2022-09-15T20:24:17.027Z,0.57
2022-09-15T20:26:46.814Z,0.70
2022-09-15T20:29:16.931Z,1.23
2022-09-15T20:31:45.341Z,0.70
2022-09-15T20:34:13.732Z,0.80
2022-09-15T20:36:42.340Z,0.60
2022-09-15T20:39:13.527Z,0.80
2022-09-15T20:41:44.837Z,0.93
2022-09-15T20:44:13.887Z,0.80
2022-09-15T20:46:44.066Z,1.20
2022-09-15T20:49:12.997Z,1.27
2022-09-15T20:51:41.600Z,0.73
2022-09-15T20:54:11.605Z,1.10
2022-09-15T20:56:40.077Z,0.87
2022-09-15T20:59:10.504Z,1.00
2022-09-15T21:01:40.472Z,0.90
2022-09-15T21:04:11.196Z,1.10
2022-09-15T21:06:40.202Z,1.00
2022-09-15T21:09:09.205Z,0.70
2022-09-15T21:11:39.727Z,0.90
2022-09-15T21:14:08.168Z,0.70
2022-09-15T21:16:36.618Z,1.27
2022-09-15T21:19:05.277Z,1.00
2022-09-15T21:21:35.492Z,1.10
2022-09-15T21:24:06.085Z,1.07
2022-09-15T21:26:56.503Z,0.87
2022-09-15T21:29:25.259Z,1.47
2022-09-15T21:31:53.786Z,0.80
2022-09-15T21:34:22.296Z,1.20
2022-09-15T21:36:53.503Z,0.93
2022-09-15T21:39:22.153Z,0.90
2022-09-15T21:41:50.893Z,0.90
2022-09-15T21:44:19.293Z,1.20
2022-09-15T21:46:47.817Z,1.13
2022-09-15T21:49:17.938Z,1.30
2022-09-15T21:51:46.351Z,1.17
2022-09-15T21:54:16.110Z,1.40
2022-09-15T21:56:45.116Z,1.23
2022-09-15T21:59:14.008Z,1.17
2022-09-15T22:01:42.570Z,0.97
2022-09-15T22:04:11.355Z,1.23
2022-09-15T22:06:41.586Z,0.90
2022-09-15T22:09:12.150Z,1.00
2022-09-15T22:11:41.997Z,1.37
2022-09-15T22:14:11.572Z,1.00
2022-09-15T22:16:41.648Z,1.73
2022-09-15T22:19:12.112Z,2.10
2022-09-15T22:21:41.783Z,1.60
2022-09-15T22:24:12.904Z,1.47
2022-09-15T22:26:43.743Z,1.30
2022-09-15T22:29:12.351Z,0.93
2022-09-15T22:31:42.001Z,1.10
2022-09-15T22:34:10.611Z,1.53
2022-09-15T22:36:39.016Z,1.00
2022-09-15T22:39:07.678Z,1.30
2022-09-15T22:41:38.141Z,0.90
2022-09-15T22:44:13.875Z,1.17
2022-09-15T22:46:42.334Z,1.30
2022-09-15T22:49:10.729Z,1.10
2022-09-15T22:51:39.203Z,0.97
2022-09-15T22:54:07.852Z,0.90
2022-09-15T22:56:36.326Z,1.03
2022-09-15T22:59:04.721Z,0.97
2022-09-15T23:01:34.541Z,1.20
2022-09-15T23:04:03.929Z,0.87
2022-09-15T23:06:33.943Z,1.40
2022-09-15T23:09:04.927Z,1.10
2022-09-15T23:11:34.116Z,1.17
2022-09-15T23:14:03.252Z,1.03
2022-09-15T23:16:32.299Z,1.13
2022-09-15T23:19:02.445Z,1.00
2022-09-15T23:21:30.868Z,0.90
2022-09-15T23:24:00.265Z,0.90
2022-09-15T23:26:28.772Z,0.70
2022-09-15T23:28:57.152Z,0.57
2022-09-15T23:31:25.620Z,0.73
2022-09-15T23:33:54.058Z,0.70
2022-09-15T23:36:23.822Z,0.80
2022-09-15T23:38:52.226Z,1.33
2022-09-15T23:41:20.808Z,1.10
2022-09-15T23:43:49.194Z,0.80
2022-09-15T23:46:17.882Z,0.90
2022-09-15T23:48:46.327Z,1.10
2022-09-15T23:51:14.738Z,1.10
2022-09-15T23:53:44.521Z,0.80
2022-09-15T23:56:13.009Z,1.43
2022-09-15T23:58:41.416Z,0.90
